createdAt,value
2022-10-14T00:01:06.040Z,100874.25
2022-10-14T00:03:34.063Z,100783.00
2022-10-14T00:06:04.497Z,100879.91
2022-10-14T00:08:30.820Z,100821.66
2022-10-14T00:10:57.257Z,100849.94
2022-10-14T00:13:23.599Z,100863.53
2022-10-14T00:15:49.915Z,100779.28
2022-10-14T00:18:16.274Z,100862.59
2022-10-14T00:20:42.610Z,100826.81
2022-10-14T00:23:09.129Z,100830.22
2022-10-14T00:25:38.130Z,100842.81
2022-10-14T00:28:04.673Z,100783.31
2022-10-14T00:30:30.999Z,100853.88
2022-10-14T00:32:57.632Z,100805.91
2022-10-14T00:35:23.977Z,100820.72
2022-10-14T00:37:50.559Z,100808.50
2022-10-14T00:40:17.023Z,100757.78
2022-10-14T00:42:43.383Z,100847.25
2022-10-14T00:45:15.250Z,100868.66
2022-10-14T00:47:43.659Z,100862.50
2022-10-14T00:50:12.827Z,100840.25
2022-10-14T00:52:39.553Z,100836.72
2022-10-14T00:55:24.019Z,100841.09
2022-10-14T00:57:50.581Z,100807.56
2022-10-14T01:00:19.156Z,100852.06
2022-10-14T01:02:47.620Z,100828.84
2022-10-14T01:05:15.900Z,100846.69
2022-10-14T01:07:59.399Z,100839.69
2022-10-14T01:10:41.410Z,100808.06
2022-10-14T01:13:29.430Z,100838.88
2022-10-14T01:16:14.689Z,100838.06
2022-10-14T01:19:04.775Z,100789.09
2022-10-14T01:21:51.115Z,100806.22
2022-10-14T01:24:58.999Z,100831.13
2022-10-14T01:28:09.155Z,100821.25
2022-10-14T01:30:46.148Z,100801.53
2022-10-14T01:33:26.720Z,100793.75
2022-10-14T01:36:07.255Z,100818.59
2022-10-14T01:38:41.318Z,100774.78
2022-10-14T01:41:21.184Z,100799.81
2022-10-14T01:43:50.419Z,100815.06
2022-10-14T01:46:19.563Z,100775.53
2022-10-14T01:48:51.158Z,100779.69
2022-10-14T01:51:23.704Z,100704.81
2022-10-14T01:53:57.216Z,100777.81
2022-10-14T01:56:24.766Z,100726.94
2022-10-14T01:58:53.978Z,100673.31
2022-10-14T02:01:20.333Z,100651.09
2022-10-14T02:03:47.659Z,100701.16
2022-10-14T02:06:21.211Z,100789.56
2022-10-14T02:09:02.709Z,100792.25
2022-10-14T02:11:38.254Z,100757.47
2022-10-14T02:14:14.252Z,100790.53
2022-10-14T02:16:45.241Z,100731.34
2022-10-14T02:19:28.353Z,100790.63
2022-10-14T02:22:19.576Z,100784.44
2022-10-14T02:24:53.267Z,100774.81
2022-10-14T02:27:22.548Z,100743.28
2022-10-14T02:29:50.535Z,100762.94
2022-10-14T02:32:20.627Z,100686.09
2022-10-14T02:34:50.893Z,100753.19
2022-10-14T02:37:19.995Z,100740.25
2022-10-14T02:39:54.653Z,100732.91
2022-10-14T02:42:21.104Z,100708.84
2022-10-14T02:44:58.944Z,100746.41
2022-10-14T02:47:25.937Z,100708.13
2022-10-14T02:49:52.830Z,100735.47
2022-10-14T02:52:20.046Z,100745.72
2022-10-14T02:54:46.748Z,100720.09
2022-10-14T02:57:13.079Z,100704.38
2022-10-14T02:59:42.279Z,100657.34
2022-10-14T03:02:08.899Z,100659.13
2022-10-14T03:04:35.753Z,100703.06
2022-10-14T03:07:02.188Z,100673.72
2022-10-14T03:09:28.575Z,100727.78
2022-10-14T03:11:54.898Z,100734.53
2022-10-14T03:14:21.310Z,100688.75
2022-10-14T03:16:47.685Z,100681.00
2022-10-14T03:19:14.123Z,100711.19
2022-10-14T03:21:40.440Z,100685.31
2022-10-14T03:24:06.975Z,100677.56
2022-10-14T03:26:33.640Z,100713.66
2022-10-14T03:29:00.021Z,100681.69
2022-10-14T03:31:26.606Z,100714.88
2022-10-14T03:33:53.201Z,100675.63
2022-10-14T03:36:19.593Z,100726.47
2022-10-14T03:38:45.924Z,100677.75
2022-10-14T03:41:12.365Z,100722.50
2022-10-14T03:43:38.708Z,100658.72
2022-10-14T03:46:05.291Z,100700.66
2022-10-14T03:48:31.707Z,100711.06
2022-10-14T03:50:58.237Z,100663.72
2022-10-14T03:53:24.686Z,100607.03
2022-10-14T03:55:51.067Z,100623.19
2022-10-14T03:58:17.451Z,100696.25
2022-10-14T04:00:44.710Z,100654.09
2022-10-14T04:03:11.068Z,100682.50
2022-10-14T04:05:37.503Z,100692.06
2022-10-14T04:08:04.125Z,100720.44
2022-10-14T04:10:31.044Z,100642.91
2022-10-14T04:12:57.580Z,100629.03
2022-10-14T04:15:24.355Z,100670.44
2022-10-14T04:17:50.791Z,100678.09
2022-10-14T04:20:17.394Z,100697.75
2022-10-14T04:22:43.958Z,100606.91
2022-10-14T04:25:10.645Z,100702.75
2022-10-14T04:27:37.120Z,100684.00
2022-10-14T04:30:04.827Z,100635.00
2022-10-14T04:32:31.267Z,100656.50
2022-10-14T04:34:57.592Z,100650.28
2022-10-14T04:37:23.965Z,100646.97
2022-10-14T04:39:50.263Z,100571.88
2022-10-14T04:42:16.585Z,100599.59
2022-10-14T04:44:42.936Z,100673.22
2022-10-14T04:47:09.263Z,100637.84
2022-10-14T04:49:35.609Z,100671.72
2022-10-14T04:52:01.913Z,100672.03
2022-10-14T04:54:28.222Z,100657.53
2022-10-14T04:56:54.588Z,100631.88
2022-10-14T04:59:20.935Z,100618.91
2022-10-14T05:01:47.336Z,100580.13
2022-10-14T05:04:14.007Z,100557.59
2022-10-14T05:06:40.726Z,100554.25
2022-10-14T05:09:07.157Z,100672.56
2022-10-14T05:11:33.651Z,100636.38
2022-10-14T05:14:00.402Z,100606.22
2022-10-14T05:16:26.915Z,100612.09
2022-10-14T05:18:53.684Z,100606.22
2022-10-14T05:21:19.993Z,100618.16
2022-10-14T05:23:46.410Z,100635.41
2022-10-14T05:26:12.732Z,100650.56
2022-10-14T05:28:39.158Z,100633.00
2022-10-14T05:31:06.185Z,100618.91
2022-10-14T05:33:33.057Z,100645.28
2022-10-14T05:35:59.890Z,100605.19
2022-10-14T05:41:11.708Z,100619.63
2022-10-14T05:43:38.017Z,100611.25
2022-10-14T05:46:04.534Z,100577.88
2022-10-14T05:48:32.129Z,100620.63
2022-10-14T05:51:02.123Z,100629.09
2022-10-14T05:53:28.607Z,100604.03
2022-10-14T05:56:08.176Z,100610.03
2022-10-14T05:58:34.791Z,100608.38
2022-10-14T06:01:06.224Z,100630.63
2022-10-14T06:03:33.343Z,100607.63
2022-10-14T06:06:00.246Z,100612.06
2022-10-14T06:08:27.803Z,100635.34
2022-10-14T06:10:54.590Z,100631.97
2022-10-14T06:13:22.065Z,100569.28
2022-10-14T06:15:48.419Z,100619.88
2022-10-14T06:18:14.738Z,100593.16
2022-10-14T06:20:41.040Z,100570.00
2022-10-14T06:23:07.334Z,100570.63
2022-10-14T06:25:34.267Z,100624.06
2022-10-14T06:28:05.087Z,100603.69
2022-10-14T06:30:32.051Z,100592.25
2022-10-14T06:32:58.388Z,100606.22
2022-10-14T06:35:24.675Z,100579.91
2022-10-14T06:37:50.996Z,100601.53
2022-10-14T06:40:17.432Z,100620.31
2022-10-14T06:42:43.886Z,100602.41
2022-10-14T06:45:10.396Z,100595.94
2022-10-14T06:47:36.743Z,100552.16
2022-10-14T06:50:03.272Z,100603.59
2022-10-14T06:52:29.586Z,100590.44
2022-10-14T06:54:55.880Z,100599.06
2022-10-14T06:57:22.200Z,100593.91
2022-10-14T06:59:48.511Z,100562.72
2022-10-14T07:02:14.911Z,100586.59
2022-10-14T07:04:41.360Z,100553.91
2022-10-14T07:07:08.505Z,100562.50
2022-10-14T07:09:35.075Z,100543.63
2022-10-14T07:12:01.788Z,100562.38
2022-10-14T07:14:28.133Z,100584.69
2022-10-14T07:16:54.833Z,100583.75
2022-10-14T07:19:21.179Z,100577.59
2022-10-14T07:21:47.627Z,100576.44
2022-10-14T07:24:14.021Z,100581.47
2022-10-14T07:26:40.521Z,100529.78
2022-10-14T07:29:06.924Z,100557.31
2022-10-14T07:31:33.984Z,100555.56
2022-10-14T07:34:01.498Z,100556.28
2022-10-14T07:36:28.464Z,100552.50
2022-10-14T07:38:55.043Z,100523.19
2022-10-14T07:41:24.616Z,100444.84
2022-10-14T07:43:54.395Z,100573.91
2022-10-14T07:46:29.467Z,100543.06
2022-10-14T07:48:57.864Z,100579.44
2022-10-14T07:51:25.189Z,100566.44
2022-10-14T07:53:52.919Z,100563.38
2022-10-14T07:56:19.408Z,100538.25
2022-10-14T07:58:46.528Z,100577.22
2022-10-14T08:01:15.462Z,100554.16
2022-10-14T08:03:42.877Z,100489.13
2022-10-14T08:06:09.413Z,100541.31
2022-10-14T08:08:35.876Z,100560.88
2022-10-14T08:11:11.646Z,100581.97
2022-10-14T08:13:43.268Z,100580.09
2022-10-14T08:16:14.044Z,100574.56
2022-10-14T08:18:40.937Z,100528.69
2022-10-14T08:21:07.268Z,100564.63
2022-10-14T08:23:33.794Z,100556.03
2022-10-14T08:26:00.320Z,100541.25
2022-10-14T08:28:26.710Z,100535.56
2022-10-14T08:30:53.433Z,100493.53
2022-10-14T08:33:20.053Z,100542.19
2022-10-14T08:35:50.224Z,100523.44
2022-10-14T08:38:24.670Z,100476.66
2022-10-14T08:41:12.623Z,100532.56
2022-10-14T08:44:07.828Z,100560.63
2022-10-14T08:46:59.291Z,100532.28
2022-10-14T08:49:28.416Z,100552.44
2022-10-14T08:52:18.188Z,100530.94
2022-10-14T08:54:48.224Z,100518.53
2022-10-14T08:57:19.110Z,100521.84
2022-10-14T08:59:45.567Z,100504.56
2022-10-14T09:02:33.838Z,100519.06
2022-10-14T09:05:02.091Z,100531.28
2022-10-14T09:07:30.597Z,100473.72
2022-10-14T09:10:06.842Z,100510.59
2022-10-14T09:12:35.563Z,100524.31
2022-10-14T09:15:22.366Z,100539.50
2022-10-14T09:17:54.813Z,100509.16
2022-10-14T09:20:24.641Z,100528.00
2022-10-14T09:22:59.776Z,100506.25
2022-10-14T09:25:26.100Z,100464.06
2022-10-14T09:27:52.665Z,100481.19
2022-10-14T09:30:19.210Z,100500.81
2022-10-14T09:32:53.041Z,100520.66
2022-10-14T09:35:42.039Z,100479.34
2022-10-14T09:38:09.436Z,100517.78
2022-10-14T09:40:40.574Z,100533.34
2022-10-14T09:43:16.839Z,100534.16
2022-10-14T09:45:50.341Z,100522.66
2022-10-14T09:48:42.822Z,100527.78
2022-10-14T09:51:17.987Z,100519.88
2022-10-14T09:53:48.949Z,100499.31
2022-10-14T09:56:17.287Z,100485.34
2022-10-14T09:58:50.958Z,100517.31
2022-10-14T10:01:20.749Z,100510.88
2022-10-14T10:03:48.946Z,100515.47
2022-10-14T10:06:22.607Z,100493.09
2022-10-14T10:09:01.259Z,100508.25
2022-10-14T10:11:37.489Z,100458.78
2022-10-14T10:14:25.387Z,100502.97
2022-10-14T10:17:12.690Z,100488.34
2022-10-14T10:19:43.096Z,100477.22
2022-10-14T10:22:24.622Z,100503.75
2022-10-14T10:25:12.067Z,100479.44
2022-10-14T10:27:46.768Z,100485.63
2022-10-14T10:30:22.433Z,100497.53
2022-10-14T10:33:16.928Z,100493.31
2022-10-14T10:35:58.272Z,100489.19
2022-10-14T10:38:55.654Z,100466.22
2022-10-14T10:41:43.766Z,100487.69
2022-10-14T10:44:26.625Z,100478.91
2022-10-14T10:47:17.988Z,100477.91
2022-10-14T10:50:10.002Z,100479.91
2022-10-14T10:53:18.522Z,100467.28
2022-10-14T10:56:07.457Z,100468.38
2022-10-14T10:58:58.919Z,100464.53
2022-10-14T11:01:38.668Z,100416.00
2022-10-14T11:04:33.265Z,100468.50
2022-10-14T11:07:26.963Z,100461.09
2022-10-14T11:10:42.597Z,100458.50
2022-10-14T11:13:51.274Z,100459.38
2022-10-14T11:16:33.839Z,100423.13
2022-10-14T11:19:14.716Z,100429.13
2022-10-14T11:21:56.258Z,100421.56
2022-10-14T11:24:54.409Z,100433.66
2022-10-14T11:27:31.892Z,100427.94
2022-10-14T11:30:14.239Z,100432.94
2022-10-14T11:32:52.388Z,100420.66
2022-10-14T11:38:07.246Z,100420.38
2022-10-14T11:40:49.862Z,100404.03
2022-10-14T11:43:36.286Z,100417.28
2022-10-14T11:46:16.181Z,100410.59
2022-10-14T11:48:48.058Z,100413.78
2022-10-14T11:51:57.928Z,100404.66
2022-10-14T11:54:47.345Z,100414.50
2022-10-14T11:57:35.023Z,100368.63
2022-10-14T12:00:39.037Z,100415.75
2022-10-14T12:03:43.838Z,100405.19
2022-10-14T12:06:12.657Z,100405.81
2022-10-14T12:09:19.130Z,100405.03
2022-10-14T12:12:17.735Z,100402.69
2022-10-14T12:14:51.415Z,100401.06
2022-10-14T12:17:27.595Z,100397.97
2022-10-14T12:19:55.117Z,100351.31
2022-10-14T12:22:25.824Z,100346.19
2022-10-14T12:24:55.285Z,100387.09
2022-10-14T12:27:24.425Z,100377.13
2022-10-14T12:29:52.634Z,100380.13
2022-10-14T12:32:28.180Z,100358.66
2022-10-14T12:34:56.898Z,100279.34
2022-10-14T12:37:31.716Z,100361.16
2022-10-14T12:40:07.417Z,100367.69
2022-10-14T12:42:51.138Z,100347.69
2022-10-14T12:45:21.727Z,100338.00
2022-10-14T12:48:02.435Z,100335.13
2022-10-14T12:50:34.556Z,100329.28
2022-10-14T12:53:35.342Z,100250.47
2022-10-14T12:56:04.846Z,100281.47
2022-10-14T12:58:42.593Z,100299.97
2022-10-14T13:01:23.473Z,100305.88
2022-10-14T13:07:44.016Z,100323.47
2022-10-14T13:10:35.653Z,100320.56
2022-10-14T13:13:47.899Z,100218.91
2022-10-14T13:16:25.888Z,100297.19
2022-10-14T13:18:53.646Z,100303.19
2022-10-14T13:21:35.283Z,100314.31
2022-10-14T13:24:06.482Z,100312.44
2022-10-14T13:26:38.847Z,100308.09
2022-10-14T13:29:17.429Z,100298.19
2022-10-14T13:32:10.055Z,100301.88
2022-10-14T13:34:53.939Z,100299.81
2022-10-14T13:37:35.803Z,100276.75
2022-10-14T13:42:51.781Z,100280.16
2022-10-14T13:45:22.242Z,100248.19
2022-10-14T13:47:49.834Z,100260.06
2022-10-14T13:50:23.023Z,100294.97
2022-10-14T13:53:00.786Z,100253.53
2022-10-14T13:55:27.455Z,100276.84
2022-10-14T13:58:13.007Z,100296.53
2022-10-14T14:00:50.149Z,100264.75
2022-10-14T14:03:28.646Z,100273.16
2022-10-14T14:05:56.763Z,100248.81
2022-10-14T14:08:41.928Z,100246.47
2022-10-14T14:11:17.728Z,100277.31
2022-10-14T14:14:00.424Z,100282.00
2022-10-14T14:16:31.881Z,100273.00
2022-10-14T14:19:13.844Z,100221.44
2022-10-14T14:21:40.403Z,100256.63
2022-10-14T14:24:16.583Z,100279.84
2022-10-14T14:26:42.943Z,100265.78
2022-10-14T14:29:21.272Z,100214.66
2022-10-14T14:32:06.128Z,100241.44
2022-10-14T14:34:35.658Z,100220.44
2022-10-14T14:37:23.499Z,100257.91
2022-10-14T14:40:03.306Z,100253.72
2022-10-14T14:42:40.034Z,100207.63
2022-10-14T14:45:22.546Z,100238.50
2022-10-14T14:47:51.372Z,100240.19
2022-10-14T14:50:31.208Z,100202.66
2022-10-14T14:53:03.267Z,100254.94
2022-10-14T14:55:47.759Z,100259.19
2022-10-14T14:58:26.366Z,100243.31
2022-10-14T15:00:54.724Z,100182.75
2022-10-14T15:03:24.891Z,100228.16
2022-10-14T15:05:59.731Z,100201.72
2022-10-14T15:08:29.756Z,100205.47
2022-10-14T15:10:57.854Z,100216.72
2022-10-14T15:13:38.635Z,100230.31
2022-10-14T15:16:05.903Z,100236.91
2022-10-14T15:18:32.565Z,100200.84
2022-10-14T15:21:07.192Z,100233.47
2022-10-14T15:23:42.821Z,100224.78
2022-10-14T15:26:30.232Z,100200.84
2022-10-14T15:29:26.119Z,100178.53
2022-10-14T15:32:01.301Z,100228.78
2022-10-14T15:34:28.128Z,100232.81
2022-10-14T15:36:54.709Z,100206.84
2022-10-14T15:39:21.861Z,100210.16
2022-10-14T15:41:48.884Z,100228.84
2022-10-14T15:44:15.478Z,100198.47
2022-10-14T15:47:02.501Z,100220.41
2022-10-14T15:49:47.372Z,100212.28
2022-10-14T15:52:15.880Z,100198.38
2022-10-14T15:54:42.855Z,100185.31
2022-10-14T15:57:12.492Z,100215.16
2022-10-14T15:59:42.168Z,100227.84
2022-10-14T16:02:25.117Z,100122.91
2022-10-14T16:05:18.359Z,100212.63
2022-10-14T16:07:38.879Z,100223.97
2022-10-14T16:10:07.355Z,100236.72
2022-10-14T16:12:33.831Z,100185.59
2022-10-14T16:15:01.830Z,100213.47
2022-10-14T16:17:28.399Z,100188.16
2022-10-14T16:19:54.746Z,100185.69
2022-10-14T16:22:21.071Z,100156.66
2022-10-14T16:24:47.445Z,100149.06
2022-10-14T16:27:13.746Z,100194.19
2022-10-14T16:29:40.105Z,100216.53
2022-10-14T16:32:06.638Z,100199.31
2022-10-14T16:34:32.985Z,100122.56
2022-10-14T16:36:59.293Z,100191.63
2022-10-14T16:39:25.609Z,100162.13
2022-10-14T16:41:51.954Z,100147.53
2022-10-14T16:44:24.580Z,100175.94
2022-10-14T16:47:11.479Z,100185.75
2022-10-14T16:49:38.950Z,100191.91
2022-10-14T16:52:06.516Z,100191.19
2022-10-14T16:54:33.086Z,100181.06
2022-10-14T16:56:59.688Z,100204.09
2022-10-14T16:59:28.356Z,100160.88
2022-10-14T17:01:54.954Z,100213.38
2022-10-14T17:04:21.491Z,100147.38
2022-10-14T17:06:47.953Z,100225.06
2022-10-14T17:09:15.784Z,100169.72
2022-10-14T17:11:42.416Z,100198.16
2022-10-14T17:14:12.278Z,100169.09
2022-10-14T17:16:38.927Z,100177.00
2022-10-14T17:19:05.870Z,100219.75
2022-10-14T17:21:32.418Z,100167.38
2022-10-14T17:24:02.940Z,100176.72
2022-10-14T17:26:31.424Z,100173.16
2022-10-14T17:28:58.288Z,100190.91
2022-10-14T17:31:25.562Z,100181.38
2022-10-14T17:33:52.347Z,100141.53
2022-10-14T17:36:33.210Z,100154.69
2022-10-14T17:39:00.042Z,100197.38
2022-10-14T17:41:28.609Z,100198.31
2022-10-14T17:43:57.082Z,100197.53
2022-10-14T17:46:24.907Z,100201.97
2022-10-14T17:48:53.450Z,100174.16
2022-10-14T17:51:23.414Z,100174.09
2022-10-14T17:53:55.145Z,100167.97
2022-10-14T17:56:21.711Z,100176.66
2022-10-14T17:58:52.385Z,100172.72
2022-10-14T18:01:21.560Z,100177.84
2022-10-14T18:03:59.167Z,100204.22
2022-10-14T18:06:30.407Z,100203.44
2022-10-14T18:09:01.051Z,100210.41
2022-10-14T18:11:35.407Z,100212.22
2022-10-14T18:14:15.418Z,100192.66
2022-10-14T18:16:43.689Z,100194.53
2022-10-14T18:19:15.860Z,100166.03
2022-10-14T18:21:43.273Z,100191.66
2022-10-14T18:24:11.072Z,100184.56
2022-10-14T18:26:39.387Z,100171.09
2022-10-14T18:29:05.841Z,100162.63
2022-10-14T18:31:32.499Z,100203.63
2022-10-14T18:34:01.177Z,100152.88
2022-10-14T18:36:30.223Z,100175.25
2022-10-14T18:38:59.115Z,100183.63
2022-10-14T18:41:25.873Z,100193.38
2022-10-14T18:43:52.412Z,100131.94
2022-10-14T18:46:21.156Z,100155.13
2022-10-14T18:48:51.174Z,100170.53
2022-10-14T18:51:20.989Z,100173.75
2022-10-14T18:53:48.506Z,100194.22
2022-10-14T18:56:17.690Z,100135.19
2022-10-14T18:58:45.865Z,100103.69
2022-10-14T19:01:14.489Z,100179.38
2022-10-14T19:03:41.701Z,100164.69
2022-10-14T19:06:10.674Z,100192.44
2022-10-14T19:08:44.429Z,100145.41
2022-10-14T19:11:24.396Z,100169.16
2022-10-14T19:14:01.905Z,100179.56
2022-10-14T19:16:30.855Z,100133.47
2022-10-14T19:18:59.753Z,100174.59
2022-10-14T19:21:29.868Z,100158.53
2022-10-14T19:23:57.927Z,100183.13
2022-10-14T19:26:26.571Z,100150.19
2022-10-14T19:28:53.416Z,100143.69
2022-10-14T19:31:22.611Z,100124.00
2022-10-14T19:33:48.985Z,100153.25
2022-10-14T19:36:17.562Z,100142.31
2022-10-14T19:38:54.751Z,100158.28
2022-10-14T19:41:21.197Z,100136.53
2022-10-14T19:43:47.625Z,100143.38
2022-10-14T19:46:14.332Z,100081.03
2022-10-14T19:48:40.706Z,100105.84
2022-10-14T19:51:10.944Z,100146.47
2022-10-14T19:53:38.525Z,100146.47
2022-10-14T19:56:09.507Z,100093.44
2022-10-14T19:58:38.602Z,100145.09
2022-10-14T20:01:17.996Z,100103.44
2022-10-14T20:03:44.535Z,100139.81
2022-10-14T20:06:12.984Z,100131.63
2022-10-14T20:08:39.637Z,100126.66
2022-10-14T20:11:08.387Z,100135.34
2022-10-14T20:13:35.172Z,100124.94
2022-10-14T20:16:02.571Z,100058.56
2022-10-14T20:18:29.930Z,100113.00
2022-10-14T20:20:57.303Z,100070.41
2022-10-14T20:23:25.176Z,100104.75
2022-10-14T20:25:51.842Z,100061.03
2022-10-14T20:28:21.371Z,100078.41
2022-10-14T20:30:48.223Z,100120.59
2022-10-14T20:33:14.814Z,100044.13
2022-10-14T20:35:41.318Z,100128.22
2022-10-14T20:38:07.659Z,100095.91
2022-10-14T20:40:35.425Z,100121.41
2022-10-14T20:43:02.855Z,100120.47
2022-10-14T20:45:29.489Z,100118.13
2022-10-14T20:47:55.856Z,100090.63
2022-10-14T20:50:22.760Z,99951.81
2022-10-14T20:52:49.244Z,100048.88
2022-10-14T20:55:15.813Z,100116.16
2022-10-14T20:57:42.326Z,100040.19
2022-10-14T21:00:09.910Z,100118.72
2022-10-14T21:02:36.285Z,100129.84
2022-10-14T21:05:02.870Z,100047.31
2022-10-14T21:07:29.284Z,100045.47
2022-10-14T21:09:55.761Z,100112.91
2022-10-14T21:12:22.505Z,100106.91
2022-10-14T21:14:49.481Z,100118.66
2022-10-14T21:17:15.910Z,100107.94
2022-10-14T21:19:42.227Z,100109.78
2022-10-14T21:22:09.232Z,100134.28
2022-10-14T21:24:36.246Z,100061.13
2022-10-14T21:27:02.752Z,100123.84
2022-10-14T21:29:29.161Z,100098.38
2022-10-14T21:31:55.519Z,100048.34
2022-10-14T21:34:24.654Z,100112.81
2022-10-14T21:36:50.980Z,100127.16
2022-10-14T21:39:18.134Z,100110.81
2022-10-14T21:41:45.018Z,100133.84
2022-10-14T21:44:15.713Z,100134.00
2022-10-14T21:46:42.043Z,100129.31
2022-10-14T21:49:10.134Z,100136.84
2022-10-14T21:51:37.231Z,100126.28
2022-10-14T21:54:04.242Z,100122.72
2022-10-14T21:56:30.809Z,100134.97
2022-10-14T21:58:57.326Z,100133.28
2022-10-14T22:01:27.254Z,100111.09
2022-10-14T22:03:57.887Z,100086.91
2022-10-14T22:06:25.090Z,100117.59
2022-10-14T22:08:53.701Z,100118.03
2022-10-14T22:11:37.350Z,100100.25
2022-10-14T22:14:05.716Z,100115.91
2022-10-14T22:16:32.118Z,100068.59
2022-10-14T22:19:01.133Z,100095.91
2022-10-14T22:21:29.532Z,100125.44
2022-10-14T22:23:56.097Z,100079.16
2022-10-14T22:26:24.461Z,100072.88
2022-10-14T22:29:04.478Z,100112.72
2022-10-14T22:31:34.957Z,100010.28
2022-10-14T22:34:04.288Z,99999.31
2022-10-14T22:36:31.612Z,100105.00
2022-10-14T22:38:59.552Z,99986.28
2022-10-14T22:41:29.821Z,100104.31
2022-10-14T22:43:59.494Z,100070.16
2022-10-14T22:46:28.435Z,100120.38
2022-10-14T22:48:58.684Z,100089.53
2022-10-14T22:51:30.173Z,100095.53
2022-10-14T22:53:56.597Z,100054.81
2022-10-14T22:56:26.001Z,100116.13
2022-10-14T22:58:57.312Z,100111.00
2022-10-14T23:01:25.555Z,100116.44
2022-10-14T23:03:51.866Z,100108.31
2022-10-14T23:06:18.175Z,100109.44
2022-10-14T23:08:44.708Z,100093.41
2022-10-14T23:11:19.368Z,100109.44
2022-10-14T23:13:45.890Z,100082.09
2022-10-14T23:16:18.716Z,100102.47
2022-10-14T23:18:46.078Z,100095.63
2022-10-14T23:21:16.975Z,100092.91
2022-10-14T23:23:44.662Z,100102.72
2022-10-14T23:26:13.174Z,100090.25
2022-10-14T23:28:40.336Z,100065.06
2022-10-14T23:31:15.334Z,100094.19
2022-10-14T23:33:42.274Z,100041.31
2022-10-14T23:36:11.466Z,100085.19
2022-10-14T23:38:38.310Z,100101.47
2022-10-14T23:41:05.894Z,100052.31
2022-10-14T23:43:32.848Z,100100.06
2022-10-14T23:45:59.423Z,100107.94
2022-10-14T23:48:26.158Z,100089.44
2022-10-14T23:50:52.689Z,100066.25
2022-10-14T23:53:19.146Z,100077.81
2022-10-14T23:55:45.715Z,100084.78
2022-10-14T23:58:12.631Z,100094.31
